Time;durP1;ratioP1;P1;durP2;ratioP2;P2;SDS_P1;SDS_P2;PMS_P1;PMS_P2;Temp;Humidity;BMP_temperature;BMP_pressure;BME280_temperature;BME280_humidity;BME280_pressure;Samples;Min_cycle;Max_cycle;Signal;HPM_P1;HPM_P2
2023/03/28 00:01:51;;;;;;;11.73;1.83;;;;;;;-146.27;100.00;84861.81;5089846;28;20048;-69
2023/03/28 00:04:21;;;;;;;14.13;2.28;;;;;;;-146.27;100.00;84857.78;5079547;28;20059;-70
2023/03/28 00:06:50;;;;;;;9.25;1.50;;;;;;;-146.27;100.00;84857.78;5086462;28;20028;-69
2023/03/28 00:09:17;;;;;;;4.93;1.27;;;;;;;-146.27;100.00;84895.97;5086485;28;20507;-69
2023/03/28 00:11:43;;;;;;;5.03;1.95;;;;;;;-146.27;100.00;84875.88;5088292;28;20573;-70
2023/03/28 00:14:08;;;;;;;11.85;1.73;;;;;;;-146.27;100.00;84912.06;5089388;28;20146;-69
2023/03/28 00:16:37;;;;;;;12.02;2.05;;;;;;;-146.27;100.00;84918.09;5077038;28;20024;-70
2023/03/28 00:19:05;;;;;;;4.90;1.48;;;;;;;-146.27;100.00;84902.00;5085075;28;20479;-70
2023/03/28 00:21:34;;;;;;;6.53;1.67;;;;;;;-146.27;100.00;84851.75;5082213;28;20133;-70
2023/03/28 00:24:01;;;;;;;9.80;1.95;;;;;;;-146.27;100.00;84887.94;5088005;28;20430;-69
2023/03/28 00:26:31;;;;;;;8.63;1.90;;;;;;;-146.27;100.00;84827.63;5085205;28;20032;-70
2023/03/28 00:28:56;;;;;;;6.18;1.73;;;;;;;-146.27;100.00;84847.72;5081052;28;20036;-70
2023/03/28 00:31:24;;;;;;;6.25;1.58;;;;;;;-146.27;100.00;84867.84;5079933;28;20481;-67
2023/03/28 00:33:50;;;;;;;4.15;1.70;;;;;;;-146.27;100.00;84873.88;5090245;28;21733;-67
2023/03/28 00:36:25;;;;;;;2.90;1.45;;;;;;;-146.27;100.00;84871.84;5084273;28;20098;-67
2023/03/28 00:38:52;;;;;;;6.88;1.85;;;;;;;-146.27;100.00;84863.81;5087183;28;20028;-67
2023/03/28 00:41:20;;;;;;;6.88;1.52;;;;;;;-146.27;100.00;84891.94;5083494;28;20111;-68
2023/03/28 00:43:49;;;;;;;4.68;1.55;;;;;;;-146.27;100.00;84910.03;5084119;28;20028;-67
2023/03/28 00:46:34;;;;;;;5.55;1.85;;;;;;;-146.27;100.00;84918.09;5082884;28;20035;-67
2023/03/28 00:49:24;;;;;;;5.60;1.65;;;;;;;-146.27;100.00;84871.84;5089261;28;20036;-67
2023/03/28 00:51:56;;;;;;;10.77;2.20;;;;;;;-146.27;100.00;84875.88;5073476;28;20104;-67
2023/03/28 00:54:27;;;;;;;10.05;2.00;;;;;;;-146.27;100.00;84902.00;5085280;28;20024;-68
2023/03/28 00:56:56;;;;;;;5.00;1.67;;;;;;;-146.27;100.00;84871.84;5082615;28;20368;-67
2023/03/28 00:59:25;;;;;;;8.93;1.60;;;;;;;-146.27;100.00;84916.06;5081248;28;20040;-66
2023/03/28 01:01:53;;;;;;;17.70;1.77;;;;;;;-146.27;100.00;84912.06;5087318;28;20028;-67
2023/03/28 01:04:21;;;;;;;12.65;1.70;;;;;;;-146.27;100.00;84891.94;5082235;28;20020;-67
2023/03/28 01:06:53;;;;;;;6.38;1.33;;;;;;;-146.27;100.00;84932.16;5088427;28;20039;-65
2023/03/28 01:09:20;;;;;;;6.38;1.48;;;;;;;-146.27;100.00;84936.19;5090867;28;20101;-67
2023/03/28 01:11:46;;;;;;;8.55;1.73;;;;;;;-146.27;100.00;84944.22;5087228;28;20368;-67
2023/03/28 01:14:16;;;;;;;7.40;1.75;;;;;;;-146.27;100.00;84916.06;5082500;28;20110;-66
2023/03/28 01:16:46;;;;;;;8.50;1.67;;;;;;;-146.27;100.00;84908.03;5084299;28;20531;-67
2023/03/28 01:19:49;;;;;;;3.97;1.48;;;;;;;-146.27;100.00;84940.19;5091685;28;20044;-67
2023/03/28 01:22:51;;;;;;;2.92;1.50;;;;;;;-146.27;100.00;84932.16;5080891;28;20097;-67
2023/03/28 01:25:44;;;;;;;5.55;1.98;;;;;;;-146.27;100.00;84934.16;5076732;28;20028;-67
2023/03/28 01:28:30;;;;;;;10.00;2.03;;;;;;;-146.27;100.00;84964.31;5092838;28;20028;-68
2023/03/28 01:31:33;;;;;;;12.57;2.67;;;;;;;-146.27;100.00;84944.22;5094179;28;20448;-67
2023/03/28 01:34:16;;;;;;;5.78;1.95;;;;;;;-146.27;100.00;84960.28;5086581;28;20055;-67
2023/03/28 01:37:22;;;;;;;7.80;2.00;;;;;;;-146.27;100.00;84994.47;5086370;28;20032;-68
2023/03/28 01:39:51;;;;;;;11.32;1.90;;;;;;;-146.27;100.00;85000.50;5090054;28;20294;-68
2023/03/28 01:42:19;;;;;;;3.88;1.83;;;;;;;-146.27;100.00;84968.34;5091330;28;20448;-65
2023/03/28 01:45:01;;;;;;;5.90;1.88;;;;;;;-146.27;100.00;84980.41;5081166;28;20020;-67
2023/03/28 01:47:36;;;;;;;14.68;1.80;;;;;;;-146.27;100.00;84992.47;5086244;28;20070;-67
2023/03/28 01:50:30;;;;;;;11.45;1.83;;;;;;;-146.27;100.00;84978.38;5089103;28;20024;-67
2023/03/28 01:53:17;;;;;;;7.68;1.38;;;;;;;-146.27;100.00;84976.38;5076029;28;20032;-67
2023/03/28 01:56:00;;;;;;;6.00;1.80;;;;;;;-146.27;100.00;84970.34;5089108;28;20028;-67
2023/03/28 01:58:45;;;;;;;6.22;1.52;;;;;;;-146.27;100.00;84992.47;5089348;28;20024;-67
2023/03/28 02:01:16;;;;;;;9.68;1.38;;;;;;;-146.27;100.00;84988.44;5088502;28;20085;-67
2023/03/28 02:03:49;;;;;;;5.50;1.58;;;;;;;-146.27;100.00;84962.31;5092356;28;20031;-67
2023/03/28 02:06:16;;;;;;;15.55;2.58;;;;;;;-146.27;100.00;84970.34;5081838;28;20368;-68
2023/03/28 02:08:44;;;;;;;9.35;1.95;;;;;;;-146.27;100.00;84964.31;5082743;28;20040;-67
2023/03/28 02:11:10;;;;;;;5.57;1.65;;;;;;;-146.27;100.00;84984.41;5078411;28;20071;-68
2023/03/28 02:13:42;;;;;;;8.85;1.58;;;;;;;-146.27;100.00;84992.47;5092160;28;20055;-67
2023/03/28 02:16:09;;;;;;;6.75;1.60;;;;;;;-146.27;100.00;84996.47;5075682;28;20028;-68
2023/03/28 02:18:40;;;;;;;4.63;1.83;;;;;;;-146.27;100.00;84980.41;5078911;28;20044;-67
2023/03/28 02:21:10;;;;;;;11.65;1.52;;;;;;;-146.27;100.00;84976.38;5077778;28;20028;-67
2023/03/28 02:23:39;;;;;;;8.65;1.40;;;;;;;-146.27;100.00;84968.34;5078286;28;20028;-67
2023/03/28 02:26:05;;;;;;;5.40;1.48;;;;;;;-146.27;100.00;84982.41;5076698;28;20024;-68
2023/03/28 02:28:33;;;;;;;7.15;1.48;;;;;;;-146.27;100.00;85000.50;5090943;28;20027;-67
2023/03/28 02:31:00;;;;;;;6.57;1.60;;;;;;;-146.27;100.00;84984.41;5081487;28;20032;-67
2023/03/28 02:33:46;;;;;;;11.95;1.40;;;;;;;-146.27;100.00;84998.50;5087842;28;20035;-67
2023/03/28 02:36:25;;;;;;;9.73;2.03;;;;;;;-146.27;100.00;85038.69;5088077;28;20035;-67
2023/03/28 02:38:50;;;;;;;6.05;1.30;;;;;;;-146.27;100.00;85020.59;5087051;28;20502;-68
2023/03/28 02:41:34;;;;;;;5.20;1.52;;;;;;;-146.27;100.00;84982.41;5079248;28;20028;-67
2023/03/28 02:44:23;;;;;;;;;;;;;;;-146.27;100.00;84986.44;5073708;28;20036;-67
2023/03/28 02:47:19;;;;;;;9.50;2.03;;;;;;;-146.27;100.00;85000.50;5080264;28;19911;-68
2023/03/28 02:50:08;;;;;;;4.13;1.63;;;;;;;-146.27;100.00;85000.50;5073860;28;20078;-68
2023/03/28 02:52:58;;;;;;;5.68;1.88;;;;;;;-146.27;100.00;85000.50;5087092;28;20039;-70
2023/03/28 02:55:53;;;;;;;10.38;1.60;;;;;;;-146.27;100.00;85028.63;5092614;28;20063;-70
2023/03/28 02:58:28;;;;;;;5.90;1.92;;;;;;;-146.27;100.00;85022.59;5078011;28;20036;-70
2023/03/28 03:00:54;;;;;;;10.57;2.05;;;;;;;-146.27;100.00;85008.53;5081786;28;20389;-70
2023/03/28 03:03:20;;;;;;;8.73;2.10;;;;;;;-146.27;100.00;85032.66;5088600;28;20028;-70
2023/03/28 03:05:46;;;;;;;4.03;1.65;;;;;;;-146.27;100.00;85040.69;5084968;28;20039;-70
2023/03/28 03:08:13;;;;;;;4.43;1.63;;;;;;;-146.27;100.00;85046.72;5084922;28;21674;-70
2023/03/28 03:10:38;;;;;;;9.38;2.17;;;;;;;-146.27;100.00;85054.78;5078456;28;20026;-70
2023/03/28 03:13:03;;;;;;;7.30;2.17;;;;;;;-146.27;100.00;85044.72;5073391;28;20403;-70
2023/03/28 03:15:29;;;;;;;6.07;1.60;;;;;;;-146.27;100.00;85006.53;5089114;28;20024;-70
2023/03/28 03:17:58;;;;;;;8.52;1.80;;;;;;;-146.27;100.00;85042.72;5082590;28;20365;-70
2023/03/28 03:20:32;;;;;;;9.48;2.38;;;;;;;-146.27;100.00;85056.78;5090087;28;20056;-70
2023/03/28 03:22:59;;;;;;;6.93;1.88;;;;;;;-146.27;100.00;84990.44;5085053;28;20028;-70
2023/03/28 03:25:25;;;;;;;5.18;1.90;;;;;;;-146.27;100.00;85030.66;5085564;28;20051;-70
2023/03/28 03:27:51;;;;;;;6.25;1.42;;;;;;;-146.27;100.00;85042.72;5082167;28;20472;-70
2023/03/28 03:30:16;;;;;;;10.30;2.50;;;;;;;-146.27;100.00;85060.81;5075047;28;20085;-70
2023/03/28 03:32:42;;;;;;;14.25;1.88;;;;;;;-146.27;100.00;85038.69;5085501;28;20061;-70
2023/03/28 03:35:08;;;;;;;6.38;2.28;;;;;;;-146.27;100.00;84964.31;5092024;28;20507;-70
2023/03/28 03:37:34;;;;;;;6.30;2.00;;;;;;;-146.27;100.00;85034.66;5083303;28;20032;-69
2023/03/28 03:39:59;;;;;;;8.85;2.03;;;;;;;-146.27;100.00;85024.63;5089595;28;20119;-70
2023/03/28 03:42:25;;;;;;;5.57;2.70;;;;;;;-146.27;100.00;85088.94;5081293;28;20028;-67
2023/03/28 03:44:53;;;;;;;19.67;6.10;;;;;;;-146.27;100.00;85068.84;5075201;28;20117;-66
2023/03/28 03:47:18;;;;;;;6.53;3.15;;;;;;;-146.27;100.00;85046.72;5084924;28;20020;-66
2023/03/28 03:49:44;;;;;;;12.07;2.78;;;;;;;-146.27;100.00;85090.94;5082020;28;20111;-67
2023/03/28 03:52:09;;;;;;;12.65;3.13;;;;;;;-146.27;100.00;85036.69;5081749;28;20080;-66
2023/03/28 03:54:35;;;;;;;8.32;2.88;;;;;;;-146.27;100.00;85044.72;5087048;28;20035;-66
2023/03/28 03:57:01;;;;;;;5.18;2.33;;;;;;;-146.27;100.00;85056.78;5076588;28;20044;-66
2023/03/28 03:59:27;;;;;;;4.15;2.08;;;;;;;-146.27;100.00;85044.72;5077209;28;20028;-66
2023/03/28 04:01:52;;;;;;;3.05;2.08;;;;;;;-146.27;100.00;85044.72;5081968;28;20028;-67
2023/03/28 04:04:19;;;;;;;7.55;1.83;;;;;;;-146.27;100.00;85040.69;5078611;28;20106;-67
2023/03/28 04:06:45;;;;;;;17.88;2.63;;;;;;;-146.27;100.00;85020.59;5078900;28;20108;-68
2023/03/28 04:09:10;;;;;;;12.25;2.22;;;;;;;-146.27;100.00;85032.66;5084429;28;20389;-67
2023/03/28 04:11:36;;;;;;;5.50;1.98;;;;;;;-146.27;100.00;85030.66;5076641;28;20028;-68
2023/03/28 04:14:01;;;;;;;9.35;2.30;;;;;;;-146.27;100.00;85042.72;5083075;28;20099;-68
2023/03/28 04:16:28;;;;;;;7.80;2.30;;;;;;;-146.27;100.00;85036.69;5091505;28;20036;-66
2023/03/28 04:18:54;;;;;;;3.80;1.88;;;;;;;-146.27;100.00;85052.75;5083897;28;20028;-66
2023/03/28 04:21:26;;;;;;;7.28;2.10;;;;;;;-146.27;100.00;85092.97;5088446;28;20028;-66
2023/03/28 04:23:51;;;;;;;11.07;2.50;;;;;;;-146.27;100.00;85064.81;5092179;28;20016;-67
2023/03/28 04:26:19;;;;;;;11.98;2.42;;;;;;;-146.27;100.00;85048.75;5083556;28;20033;-67
2023/03/28 04:28:46;;;;;;;9.52;2.17;;;;;;;-146.27;100.00;85084.94;5092933;28;20049;-67
2023/03/28 04:31:12;;;;;;;4.80;2.33;;;;;;;-146.27;100.00;85070.84;5091340;28;20400;-68
2023/03/28 04:33:38;;;;;;;4.57;2.25;;;;;;;-146.27;100.00;85088.94;5076988;28;20025;-68
2023/03/28 04:36:04;;;;;;;5.22;2.20;;;;;;;-146.27;100.00;85103.00;5092957;28;20040;-67
2023/03/28 04:38:34;;;;;;;4.55;2.20;;;;;;;-146.27;100.00;85068.84;5098914;28;20020;-68
2023/03/28 04:41:01;;;;;;;4.97;2.63;;;;;;;-146.27;100.00;85084.94;5087261;28;20111;-67
2023/03/28 04:43:27;;;;;;;6.05;2.22;;;;;;;-146.27;100.00;85052.75;5084626;28;20028;-67
2023/03/28 04:45:54;;;;;;;10.30;2.20;;;;;;;-146.27;100.00;85072.88;5092536;28;20052;-67
2023/03/28 04:48:20;;;;;;;6.68;2.88;;;;;;;-146.27;100.00;85064.81;5089278;28;20101;-67
2023/03/28 04:50:45;;;;;;;6.43;2.50;;;;;;;-146.27;100.00;85060.81;5080718;28;20443;-67
2023/03/28 04:53:12;;;;;;;4.65;2.47;;;;;;;-146.27;100.00;85082.91;5087106;28;20020;-67
2023/03/28 04:55:38;;;;;;;7.10;3.58;;;;;;;-146.27;100.00;85076.88;5085078;28;20031;-67
2023/03/28 04:58:04;;;;;;;13.88;2.20;;;;;;;-146.27;100.00;85042.72;5081882;28;20036;-67
2023/03/28 05:00:30;;;;;;;6.57;2.17;;;;;;;-146.27;100.00;85042.72;5078859;28;20024;-68
2023/03/28 05:02:58;;;;;;;6.20;2.45;;;;;;;-146.27;100.00;84974.38;5083699;28;20028;-67
2023/03/28 05:05:24;;;;;;;4.18;1.85;;;;;;;-146.27;100.00;85044.72;5093595;28;20024;-67
2023/03/28 05:07:50;;;;;;;18.63;2.50;;;;;;;-146.27;100.00;85076.88;5076527;28;20389;-66
2023/03/28 05:10:15;;;;;;;6.43;2.40;;;;;;;-146.27;100.00;85064.81;5080647;28;20423;-66
2023/03/28 05:12:41;;;;;;;5.30;2.33;;;;;;;-146.27;100.00;85096.97;5088236;28;20025;-67
2023/03/28 05:15:06;;;;;;;6.65;2.17;;;;;;;-146.27;100.00;85101.00;5091115;28;20024;-67
2023/03/28 05:17:32;;;;;;;6.97;2.60;;;;;;;-146.27;100.00;85072.88;5079340;28;20024;-67
2023/03/28 05:19:57;;;;;;;8.70;2.88;;;;;;;-146.27;100.00;85044.72;5076924;28;20032;-68
2023/03/28 05:22:23;;;;;;;8.70;2.40;;;;;;;-146.27;100.00;85060.81;5085509;28;20028;-66
2023/03/28 05:24:48;;;;;;;14.77;2.83;;;;;;;-146.27;100.00;85084.94;5086235;28;20032;-67
2023/03/28 05:27:14;;;;;;;5.15;2.03;;;;;;;-146.27;100.00;85064.81;5103079;28;20032;-66
2023/03/28 05:29:40;;;;;;;4.32;1.80;;;;;;;-146.27;100.00;85032.66;5100100;28;20391;-67
2023/03/28 05:32:05;;;;;;;7.97;2.17;;;;;;;-146.27;100.00;85038.69;5088458;28;20617;-66
2023/03/28 05:34:33;;;;;;;4.22;1.80;;;;;;;-146.27;100.00;85016.56;5082501;28;20101;-66
2023/03/28 05:36:58;;;;;;;5.10;2.10;;;;;;;-146.27;100.00;85044.72;5079366;28;20433;-66
2023/03/28 05:39:24;;;;;;;5.97;2.10;;;;;;;-146.27;100.00;85030.66;5087452;28;20098;-66
2023/03/28 05:41:49;;;;;;;11.13;2.50;;;;;;;-146.27;100.00;85028.63;5079884;28;20040;-66
2023/03/28 05:44:15;;;;;;;10.85;2.65;;;;;;;-146.27;100.00;85020.59;5081900;28;20036;-67
2023/03/28 05:46:40;;;;;;;6.57;2.10;;;;;;;-146.27;100.00;85012.56;5087083;28;20367;-67
2023/03/28 05:49:06;;;;;;;10.70;3.05;;;;;;;-146.27;100.00;84972.34;5090713;28;20135;-68
2023/03/28 05:51:31;;;;;;;16.55;3.20;;;;;;;-146.27;100.00;84994.47;5079112;28;20028;-68
2023/03/28 05:53:57;;;;;;;7.95;3.05;;;;;;;-146.27;100.00;85010.56;5081368;28;20029;-67
2023/03/28 05:56:22;;;;;;;4.25;2.13;;;;;;;-146.27;100.00;85012.56;5081727;28;20464;-67
2023/03/28 05:58:48;;;;;;;10.00;3.13;;;;;;;-146.27;100.00;84984.41;5087822;28;20024;-67
2023/03/28 06:01:16;;;;;;;5.53;2.63;;;;;;;-146.27;100.00;84988.44;5080604;28;20143;-67
2023/03/28 06:03:42;;;;;;;9.48;2.92;;;;;;;-146.27;100.00;85004.53;5081732;28;20035;-67
2023/03/28 06:06:08;;;;;;;8.10;2.83;;;;;;;-146.27;100.00;84974.38;5084272;28;20036;-68
2023/03/28 06:08:33;;;;;;;10.88;3.00;;;;;;;-146.27;100.00;84948.22;5080789;28;20101;-67
2023/03/28 06:11:01;;;;;;;9.98;2.63;;;;;;;-146.27;100.00;84952.25;5088209;28;20026;-68
2023/03/28 06:13:27;;;;;;;13.45;2.53;;;;;;;-146.27;100.00;84938.19;5086926;28;20016;-68
2023/03/28 06:15:52;;;;;;;13.80;2.65;;;;;;;-146.27;100.00;84936.19;5082711;28;20024;-68
2023/03/28 06:18:17;;;;;;;20.08;3.20;;;;;;;-146.27;100.00;84912.06;5082932;28;20098;-67
2023/03/28 06:20:43;;;;;;;8.30;2.88;;;;;;;-146.27;100.00;84924.13;5083876;28;20036;-67
2023/03/28 06:23:08;;;;;;;8.20;3.13;;;;;;;-146.27;100.00;84859.78;5093105;28;20051;-67
2023/03/28 06:25:34;;;;;;;25.92;3.03;;;;;;;-146.27;100.00;84906.03;5088853;28;20055;-68
2023/03/28 06:27:59;;;;;;;7.45;2.72;;;;;;;-146.27;100.00;84839.69;5083311;28;20027;-68
2023/03/28 06:30:25;;;;;;;19.70;3.20;;;;;;;-146.27;100.00;84887.94;5076632;28;20035;-67
2023/03/28 06:32:50;;;;;;;15.32;2.83;;;;;;;-146.27;100.00;84912.06;5082180;28;20361;-67
2023/03/28 06:35:15;;;;;;;16.02;2.80;;;;;;;-146.27;100.00;84861.81;5078658;28;20095;-68
2023/03/28 06:37:41;;;;;;;12.30;3.20;;;;;;;-146.27;100.00;84835.66;5076750;28;20032;-65
2023/03/28 06:40:07;;;;;;;14.68;3.03;;;;;;;-146.27;100.00;84837.69;5093022;28;20020;-67
2023/03/28 06:42:33;;;;;;;12.90;3.55;;;;;;;-146.27;100.00;84789.44;5092890;28;20028;-68
2023/03/28 06:44:58;;;;;;;11.48;3.20;;;;;;;-146.27;100.00;84801.50;5092208;28;20463;-67
2023/03/28 06:47:24;;;;;;;9.68;3.20;;;;;;;-146.27;100.00;84765.31;5092843;28;20028;-66
2023/03/28 06:49:49;;;;;;;8.45;2.85;;;;;;;-146.27;100.00;84777.38;5092811;28;20092;-67
2023/03/28 06:52:15;;;;;;;23.58;4.00;;;;;;;-146.27;100.00;84719.09;5075067;28;20085;-66
2023/03/28 06:54:41;;;;;;;9.20;3.72;;;;;;;-146.27;100.00;84743.22;5077186;28;20076;-66
2023/03/28 06:57:06;;;;;;;10.18;3.45;;;;;;;-146.27;100.00;84721.09;5089838;28;20105;-66
2023/03/28 06:59:31;;;;;;;8.70;3.30;;;;;;;-146.27;100.00;84715.06;5092880;28;20110;-66
2023/03/28 07:01:57;;;;;;;8.98;2.85;;;;;;;-146.27;100.00;84723.13;5092821;28;20426;-65
2023/03/28 07:04:22;;;;;;;18.85;3.47;;;;;;;-146.27;100.00;84707.03;5092676;28;20585;-66
2023/03/28 07:06:48;;;;;;;9.77;2.88;;;;;;;-146.27;100.00;84692.97;5090607;28;20116;-66
2023/03/28 07:09:13;;;;;;;11.85;3.10;;;;;;;-146.27;100.00;84699.00;5080019;28;20439;-68
2023/03/28 07:11:39;;;;;;;5.20;3.03;;;;;;;-146.27;100.00;84670.84;5079282;28;20038;-67
2023/03/28 07:14:04;;;;;;;14.15;3.63;;;;;;;-146.27;99.40;84672.88;5090276;28;20391;-67
2023/03/28 07:16:30;;;;;;;7.07;3.45;;;;;;;-146.27;99.08;84646.72;5087876;28;20034;-67
2023/03/28 07:18:55;;;;;;;13.68;3.47;;;;;;;-146.27;99.27;84642.72;5092572;28;20032;-66
2023/03/28 07:21:21;;;;;;;12.65;3.22;;;;;;;-146.27;97.75;84652.75;5078434;28;20404;-68
2023/03/28 07:23:46;;;;;;;13.20;3.88;;;;;;;-146.27;98.02;84614.56;5090089;28;20031;-68
2023/03/28 07:26:13;;;;;;;9.23;3.15;;;;;;;-146.27;97.56;84628.66;5092020;28;20455;-66
2023/03/28 07:28:39;;;;;;;9.63;3.45;;;;;;;-146.27;96.53;84598.50;5078086;28;20024;-67
2023/03/28 07:31:05;;;;;;;11.25;3.20;;;;;;;-146.27;95.77;84612.56;5084893;28;20024;-66
2023/03/28 07:33:32;;;;;;;10.63;3.55;;;;;;;-146.27;95.73;84626.63;5086195;28;20072;-67
2023/03/28 07:35:58;;;;;;;8.50;3.08;;;;;;;-146.27;95.17;84598.50;5092190;28;20035;-66
2023/03/28 07:38:23;;;;;;;7.85;3.15;;;;;;;-146.27;94.00;84558.31;5090367;28;20036;-66
2023/03/28 07:40:49;;;;;;;9.48;4.30;;;;;;;-146.27;93.52;84526.13;5090206;28;20016;-66
2023/03/28 07:43:14;;;;;;;10.63;2.70;;;;;;;-146.27;91.57;84544.22;5081582;28;20028;-67
2023/03/28 07:45:40;;;;;;;8.15;3.00;;;;;;;-146.27;90.72;84518.09;5077272;28;20052;-67
2023/03/28 07:48:05;;;;;;;5.00;2.28;;;;;;;-146.27;90.83;84475.91;5078109;28;20055;-66
2023/03/28 07:50:31;;;;;;;18.60;2.78;;;;;;;-146.27;90.41;84473.88;5091939;28;20024;-66
2023/03/28 07:52:57;;;;;;;5.40;2.15;;;;;;;-146.27;85.86;84498.00;5090401;28;20483;-65
2023/03/28 07:55:27;;;;;;;12.00;2.63;;;;;;;-146.27;86.16;84530.16;5076374;28;20036;-66
2023/03/28 07:57:53;;;;;;;6.82;2.60;;;;;;;-146.27;87.02;84526.13;5077659;28;20025;-66
2023/03/28 08:00:21;;;;;;;10.18;2.60;;;;;;;-146.27;86.78;84514.09;5080505;28;20820;-67
2023/03/28 08:02:46;;;;;;;6.78;2.20;;;;;;;-146.27;84.00;84469.88;5111645;28;20401;-67
2023/03/28 08:05:12;;;;;;;9.35;2.15;;;;;;;-146.27;81.19;84429.66;5093716;28;20028;-67
2023/03/28 08:07:40;;;;;;;6.35;2.45;;;;;;;-146.27;81.46;84455.78;5086767;28;20075;-66
2023/03/28 08:10:07;;;;;;;8.32;1.80;;;;;;;-146.27;75.75;84467.84;5091794;28;20070;-66
2023/03/28 08:12:33;;;;;;;11.25;1.90;;;;;;;-146.27;76.86;84429.66;5078070;28;20020;-67
2023/03/28 08:14:58;;;;;;;6.97;1.90;;;;;;;-146.27;74.73;84403.53;5080107;28;20540;-66
2023/03/28 08:17:25;;;;;;;6.00;2.13;;;;;;;-146.27;74.74;84443.75;5081233;28;20449;-67
2023/03/28 08:19:50;;;;;;;7.50;1.70;;;;;;;-146.27;69.32;84417.59;5081786;28;20020;-67
2023/03/28 08:22:16;;;;;;;7.03;2.22;;;;;;;-146.27;66.34;84401.53;5079981;28;20475;-67
2023/03/28 08:24:42;;;;;;;5.18;1.75;;;;;;;-146.27;67.38;84391.47;5081182;28;20052;-66
2023/03/28 08:27:08;;;;;;;5.60;1.58;;;;;;;-146.27;66.83;84373.41;5083937;28;20063;-66
2023/03/28 08:29:34;;;;;;;8.05;1.60;;;;;;;-146.27;64.57;84439.72;5079670;28;20577;-66
2023/03/28 08:31:59;;;;;;;7.63;1.80;;;;;;;-146.27;65.19;84385.44;5090911;28;20024;-66
2023/03/28 08:34:25;;;;;;;3.05;1.85;;;;;;;-146.27;64.83;84365.34;5091378;28;20040;-66
2023/03/28 08:36:51;;;;;;;11.63;1.73;;;;;;;-146.27;64.46;84395.50;5090879;28;20106;-67
2023/03/28 08:39:17;;;;;;;11.15;2.10;;;;;;;-146.27;62.61;84383.44;5074185;28;20024;-67
2023/03/28 08:42:05;;;;;;;3.00;1.50;;;;;;;-146.27;62.59;84417.59;5090380;28;20105;-67
2023/03/28 08:44:41;;;;;;;4.13;1.70;;;;;;;-146.27;61.99;84393.50;5071753;28;20041;-67
2023/03/28 08:47:21;;;;;;;5.18;1.80;;;;;;;-146.27;61.75;84381.44;5071259;28;20020;-68
2023/03/28 08:49:55;;;;;;;8.68;2.60;;;;;;;-146.27;60.37;84393.50;5075837;28;20028;-67
2023/03/28 08:52:21;;;;;;;7.55;2.35;;;;;;;-146.27;60.46;84341.22;5091538;28;20013;-67
2023/03/28 08:54:51;;;;;;;9.45;2.35;;;;;;;-146.27;62.59;84457.81;5091251;28;20517;-67
2023/03/28 08:57:24;;;;;;;6.88;2.38;;;;;;;-146.27;60.46;84323.16;5081614;28;20045;-67
2023/03/28 08:59:58;;;;;;;8.45;2.50;;;;;;;-146.27;59.59;84333.19;5083135;28;20020;-67
2023/03/28 09:02:26;;;;;;;3.75;2.05;;;;;;;-146.27;59.22;84329.19;5091300;28;20024;-67
2023/03/28 09:04:53;;;;;;;10.07;2.72;;;;;;;-146.27;60.37;84333.19;5091163;28;20024;-67
2023/03/28 09:07:48;;;;;;;15.68;3.33;;;;;;;-146.27;60.09;84313.09;5089702;28;20031;-66
2023/03/28 09:10:20;;;;;;;13.98;2.70;;;;;;;-146.27;61.18;84317.13;5094906;28;20024;-67
2023/03/28 09:13:05;;;;;;;6.03;3.35;;;;;;;-146.27;59.81;84321.13;5079605;28;20016;-67
2023/03/28 09:15:40;;;;;;;4.78;2.25;;;;;;;-146.27;55.53;84299.03;5094706;28;20028;-67
2023/03/28 09:18:37;;;;;;;4.68;2.17;;;;;;;-146.27;54.47;84337.22;5087839;28;20020;-67
2023/03/28 09:21:30;;;;;;;4.18;2.33;;;;;;;-146.27;53.73;84252.81;5074553;28;20028;-67
2023/03/28 09:24:23;;;;;;;8.02;1.90;;;;;;;-146.27;51.83;84270.91;5087837;28;20073;-66
2023/03/28 09:27:05;;;;;;;11.40;2.67;;;;;;;-146.27;51.75;84272.91;5094753;28;20039;-67
2023/03/28 09:29:35;;;;;;;7.65;2.72;;;;;;;-146.27;53.05;84288.97;5082449;28;20039;-66
2023/03/28 09:32:18;;;;;;;6.47;2.13;;;;;;;-146.27;51.67;84252.81;5092295;28;20098;-66
2023/03/28 09:34:48;;;;;;;6.18;2.40;;;;;;;-146.27;49.88;84276.94;5093074;28;20093;-68
2023/03/28 09:37:38;;;;;;;7.50;2.58;;;;;;;-146.27;50.27;84252.81;5086184;28;20032;-67
2023/03/28 09:40:33;;;;;;;6.80;2.00;;;;;;;-146.27;50.09;84252.81;5087718;28;20061;-67
2023/03/28 09:43:40;;;;;;;6.35;2.10;;;;;;;-146.27;49.52;84309.06;5083528;28;20483;-66
2023/03/28 09:46:10;;;;;;;7.32;1.98;;;;;;;-146.27;50.09;84240.75;5093283;28;20054;-66
2023/03/28 09:48:37;;;;;;;4.90;1.98;;;;;;;-146.27;49.86;84202.56;5087354;28;20472;-67
2023/03/28 09:51:05;;;;;;;7.07;2.00;;;;;;;-146.27;50.13;84246.78;5092172;28;20024;-67
2023/03/28 09:53:36;;;;;;;6.18;1.60;;;;;;;-146.27;50.94;84216.63;5092389;28;20078;-67
2023/03/28 09:56:11;;;;;;;3.67;1.45;;;;;;;-146.27;48.83;84204.56;5086398;28;20423;-67
2023/03/28 09:58:50;;;;;;;7.47;1.67;;;;;;;-146.27;48.37;84150.31;5076991;28;20027;-67
2023/03/28 10:01:26;;;;;;;8.88;1.80;;;;;;;-146.27;46.38;84158.34;5079353;28;20123;-67
2023/03/28 10:03:53;;;;;;;8.40;1.95;;;;;;;-146.27;45.67;84172.41;5090550;28;20051;-67
2023/03/28 10:06:26;;;;;;;7.65;1.85;;;;;;;-146.27;46.68;84176.44;5090919;28;20479;-67
2023/03/28 10:08:52;;;;;;;5.78;1.58;;;;;;;-146.27;45.35;84238.75;5092017;28;20391;-67
2023/03/28 10:11:20;;;;;;;5.43;1.60;;;;;;;-146.27;44.74;84232.72;5085454;28;20024;-67
2023/03/28 10:13:50;;;;;;;3.97;1.40;;;;;;;-146.27;44.66;84222.66;5091813;28;20031;-66
2023/03/28 10:16:27;;;;;;;4.63;1.85;;;;;;;-146.27;44.79;84156.34;5085863;28;20020;-67
2023/03/28 10:18:53;;;;;;;5.07;1.98;;;;;;;-146.27;44.77;84180.47;5092319;28;20028;-67
2023/03/28 10:21:25;;;;;;;5.85;2.03;;;;;;;-146.27;45.16;84200.56;5088910;28;20027;-67
2023/03/28 10:24:10;;;;;;;3.10;1.48;;;;;;;-146.27;45.19;84202.56;5090738;28;20028;-67
2023/03/28 10:26:35;;;;;;;10.57;2.63;;;;;;;-146.27;45.79;84152.31;5089246;28;20027;-67
2023/03/28 10:29:03;;;;;;;3.85;1.92;;;;;;;-146.27;43.61;84104.09;5090996;28;20402;-66
2023/03/28 10:31:31;;;;;;;4.25;1.73;;;;;;;-146.27;43.04;84120.16;5086620;28;20024;-66
2023/03/28 10:33:59;;;;;;;5.82;1.73;;;;;;;-146.27;42.52;84051.84;5091323;28;20413;-67
2023/03/28 10:36:33;;;;;;;7.03;1.75;;;;;;;-146.27;41.93;84017.69;5093138;28;20024;-68
2023/03/28 10:39:11;;;;;;;3.50;1.40;;;;;;;-146.27;41.25;83979.50;5085252;28;20073;-67
2023/03/28 10:41:54;;;;;;;7.60;1.60;;;;;;;-146.27;40.73;83987.53;5090762;28;20043;-68
2023/03/28 10:44:31;;;;;;;10.57;1.60;;;;;;;-146.27;41.47;84023.69;5087907;28;20039;-67
2023/03/28 10:47:01;;;;;;;6.03;2.00;;;;;;;-146.27;42.17;83999.59;5088001;28;20484;-68
2023/03/28 10:49:29;;;;;;;5.35;1.65;;;;;;;-146.27;40.67;84029.72;5084588;28;20016;-68
2023/03/28 10:51:55;;;;;;;11.75;2.00;;;;;;;-146.27;40.93;84039.78;5086364;28;20051;-66
2023/03/28 10:54:40;;;;;;;8.13;1.92;;;;;;;-146.27;41.25;84035.75;5088229;28;20051;-67
2023/03/28 10:57:08;;;;;;;3.80;1.67;;;;;;;-146.27;39.82;84001.59;5084827;28;20028;-68
2023/03/28 11:00:11;;;;;;;4.55;1.40;;;;;;;-146.27;40.47;84059.88;5083660;28;20046;-67
2023/03/28 11:03:15;;;;;;;5.03;1.45;;;;;;;-146.27;40.74;84029.72;5085837;28;20110;-67
2023/03/28 11:05:50;;;;;;;5.25;1.45;;;;;;;-146.27;40.65;84108.09;5087942;28;20545;-68
2023/03/28 11:08:57;;;;;;;3.45;1.75;;;;;;;-146.27;41.39;84096.06;5091870;28;20047;-67
2023/03/28 11:11:35;;;;;;;6.82;2.33;;;;;;;-146.27;42.67;84176.44;5081844;28;20548;-67
2023/03/28 11:14:13;;;;;;;7.43;2.00;;;;;;;-146.27;43.82;84174.44;5091705;28;20502;-67
2023/03/28 11:17:01;;;;;;;8.73;2.13;;;;;;;-146.27;44.31;84188.50;5097339;28;20069;-67
2023/03/28 11:20:04;;;;;;;10.63;2.35;;;;;;;-146.27;44.28;84152.31;5082129;28;20089;-68
2023/03/28 11:22:36;;;;;;;7.05;2.17;;;;;;;-146.27;44.66;84176.44;5073659;28;20035;-68
2023/03/28 11:25:29;;;;;;;9.68;2.83;;;;;;;-146.27;44.34;84168.41;5081083;28;20388;-67
2023/03/28 11:28:03;;;;;;;7.85;2.60;;;;;;;-146.27;44.74;84148.31;5072110;28;20043;-68